createdAt,value
2018-04-07T00:00:02.365Z,963.92
2018-04-07T00:01:02.355Z,963.88
2018-04-07T00:02:02.349Z,963.80
2018-04-07T00:03:02.348Z,963.75
2018-04-07T00:04:02.337Z,963.95
2018-04-07T00:05:02.335Z,963.91
2018-04-07T00:06:02.331Z,963.88
2018-04-07T00:07:02.321Z,963.86
2018-04-07T00:08:02.314Z,963.83
2018-04-07T00:09:02.305Z,963.82
2018-04-07T00:10:02.303Z,963.79
2018-04-07T00:11:02.295Z,963.85
2018-04-07T00:12:02.294Z,963.91
2018-04-07T00:13:02.282Z,963.85
2018-04-07T00:14:02.286Z,963.77
2018-04-07T00:15:02.272Z,963.76
2018-04-07T00:16:02.264Z,963.83
2018-04-07T00:17:02.259Z,963.84
2018-04-07T00:18:02.251Z,963.77
2018-04-07T00:19:02.248Z,963.81
2018-04-07T00:20:02.245Z,963.79
2018-04-07T00:21:02.234Z,963.76
2018-04-07T00:22:02.235Z,963.77
2018-04-07T00:23:02.219Z,963.82
2018-04-07T00:24:02.217Z,963.80
2018-04-07T00:25:02.210Z,963.80
2018-04-07T00:26:02.226Z,963.77
2018-04-07T00:27:02.196Z,963.77
2018-04-07T00:28:02.189Z,963.76
2018-04-07T00:29:02.184Z,963.73
2018-04-07T00:30:02.181Z,963.71
2018-04-07T00:31:02.195Z,963.75
2018-04-07T00:32:02.163Z,963.71
2018-04-07T00:33:02.156Z,963.67
2018-04-07T00:34:02.153Z,963.69
2018-04-07T00:35:02.148Z,963.79
2018-04-07T00:36:02.137Z,963.70
2018-04-07T00:37:02.131Z,963.70
2018-04-07T00:38:02.129Z,963.67
2018-04-07T00:39:02.121Z,963.68
2018-04-07T00:40:02.121Z,963.72
2018-04-07T00:41:02.106Z,963.71
2018-04-07T00:42:02.106Z,963.64
2018-04-07T00:43:02.098Z,963.64
2018-04-07T00:44:02.088Z,963.63
2018-04-07T00:45:02.089Z,963.72
2018-04-07T00:46:02.076Z,963.63
2018-04-07T00:47:02.068Z,963.58
2018-04-07T00:48:02.083Z,963.63
2018-04-07T00:49:02.063Z,963.63
2018-04-07T00:50:02.047Z,963.57
2018-04-07T00:51:02.047Z,963.56
2018-04-07T00:52:02.035Z,963.61
2018-04-07T00:53:02.029Z,963.51
2018-04-07T00:54:02.026Z,963.53
2018-04-07T00:55:02.015Z,963.50
2018-04-07T00:56:02.014Z,963.49
2018-04-07T00:57:02.027Z,963.46
2018-04-07T00:58:01.998Z,963.41
2018-04-07T00:59:01.998Z,963.47
2018-04-07T01:00:01.986Z,963.48
2018-04-07T01:01:01.985Z,963.46
2018-04-07T01:02:02.019Z,963.50
2018-04-07T01:03:01.975Z,963.46
2018-04-07T01:04:01.962Z,963.43
2018-04-07T01:05:01.954Z,963.45
2018-04-07T01:06:01.949Z,963.42
2018-04-07T01:07:01.940Z,963.40
2018-04-07T01:08:01.932Z,963.37
2018-04-07T01:09:01.927Z,963.37
2018-04-07T01:10:01.923Z,963.36
2018-04-07T01:11:01.916Z,963.34
2018-04-07T01:12:01.912Z,963.33
2018-04-07T01:13:01.902Z,963.28
2018-04-07T01:14:01.898Z,963.37
2018-04-07T01:15:01.889Z,963.35
2018-04-07T01:16:01.895Z,963.27
2018-04-07T01:17:01.877Z,963.35
2018-04-07T01:18:01.871Z,963.33
2018-04-07T01:19:01.866Z,963.33
2018-04-07T01:20:01.858Z,963.37
2018-04-07T01:21:01.849Z,963.22
2018-04-07T01:22:01.847Z,963.29
2018-04-07T01:23:01.839Z,963.26
2018-04-07T01:24:01.838Z,963.28
2018-04-07T01:25:01.827Z,963.24
2018-04-07T01:26:01.829Z,963.19
2018-04-07T01:27:01.813Z,963.23
2018-04-07T01:28:01.804Z,963.19
2018-04-07T01:29:01.801Z,963.19
2018-04-07T01:30:01.792Z,963.15
2018-04-07T01:31:01.789Z,963.18
2018-04-07T01:32:01.779Z,963.14
2018-04-07T01:33:01.772Z,963.12
2018-04-07T01:34:01.771Z,963.12
2018-04-07T01:35:01.768Z,963.13
2018-04-07T01:36:01.756Z,963.15
2018-04-07T01:37:01.746Z,963.02
2018-04-07T01:38:01.741Z,963.06
2018-04-07T01:39:01.737Z,962.98
2018-04-07T01:40:01.732Z,963.00
2018-04-07T01:41:01.724Z,962.99
2018-04-07T01:42:01.717Z,963.01
2018-04-07T01:43:01.708Z,963.07
2018-04-07T01:44:01.702Z,963.03
2018-04-07T01:45:01.695Z,962.97
2018-04-07T01:46:01.689Z,962.96
2018-04-07T01:47:01.705Z,963.01
2018-04-07T01:48:01.677Z,963.02
2018-04-07T01:49:01.669Z,962.97
2018-04-07T01:50:01.663Z,962.93
2018-04-07T01:51:01.656Z,963.01
2018-04-07T01:52:01.650Z,962.95
2018-04-07T01:53:01.647Z,962.88
2018-04-07T01:54:01.635Z,963.02
2018-04-07T01:55:01.627Z,962.96
2018-04-07T01:56:01.628Z,962.90
2018-04-07T01:57:01.619Z,963.01
2018-04-07T01:58:01.609Z,962.85
2018-04-07T01:59:01.605Z,962.88
2018-04-07T02:00:01.594Z,962.92
2018-04-07T02:01:01.608Z,962.91
2018-04-07T02:02:01.585Z,962.88
2018-04-07T02:03:01.582Z,962.87
2018-04-07T02:04:01.570Z,962.78
2018-04-07T02:05:01.579Z,962.83
2018-04-07T02:06:01.572Z,962.87
2018-04-07T02:07:01.549Z,962.83
2018-04-07T02:08:01.548Z,962.82
2018-04-07T02:09:01.535Z,962.85
2018-04-07T02:10:01.529Z,962.81
2018-04-07T02:11:01.528Z,962.85
2018-04-07T02:12:01.520Z,962.81
2018-04-07T02:13:01.510Z,962.80
2018-04-07T02:14:01.504Z,962.82
2018-04-07T02:15:01.496Z,962.81
2018-04-07T02:16:01.493Z,962.83
2018-04-07T02:17:01.494Z,962.78
2018-04-07T02:18:01.487Z,962.75
2018-04-07T02:19:01.473Z,962.78
2018-04-07T02:20:01.463Z,962.82
2018-04-07T02:21:01.458Z,962.79
2018-04-07T02:22:01.462Z,962.70
2018-04-07T02:23:01.448Z,962.74
2018-04-07T02:24:01.455Z,962.70
2018-04-07T02:25:01.441Z,962.78
2018-04-07T02:26:01.423Z,962.76
2018-04-07T02:27:01.417Z,962.71
2018-04-07T02:28:01.411Z,962.75
2018-04-07T02:29:01.404Z,962.69
2018-04-07T02:30:01.398Z,962.74
2018-04-07T02:31:01.394Z,962.76
2018-04-07T02:32:01.386Z,962.73
2018-04-07T02:33:01.447Z,962.76
2018-04-07T02:34:01.408Z,962.73
2018-04-07T02:35:01.366Z,962.72
2018-04-07T02:36:01.358Z,962.73
2018-04-07T02:37:01.355Z,962.74
2018-04-07T02:38:01.344Z,962.72
2018-04-07T02:39:01.340Z,962.74
2018-04-07T02:40:01.345Z,962.68
2018-04-07T02:41:01.327Z,962.71
2018-04-07T02:42:01.993Z,962.72
2018-04-07T02:43:01.313Z,962.66
2018-04-07T02:44:01.305Z,962.64
2018-04-07T02:45:01.302Z,962.67
2018-04-07T02:46:01.302Z,962.65
2018-04-07T02:47:01.293Z,962.64
2018-04-07T02:48:01.281Z,962.69
2018-04-07T02:49:01.278Z,962.58
2018-04-07T02:50:01.270Z,962.58
2018-04-07T02:51:01.262Z,962.56
2018-04-07T02:52:01.989Z,962.55
2018-04-07T02:53:01.253Z,962.54
2018-04-07T02:54:01.244Z,962.56
2018-04-07T02:55:01.237Z,962.55
2018-04-07T02:56:01.229Z,962.55
2018-04-07T02:57:01.224Z,962.57
2018-04-07T02:58:01.218Z,962.56
2018-04-07T02:59:01.213Z,962.50
2018-04-07T03:00:01.207Z,962.55
2018-04-07T03:01:01.199Z,962.54
2018-04-07T03:02:01.193Z,962.49
2018-04-07T03:03:01.188Z,962.57
2018-04-07T03:04:01.197Z,962.56
2018-04-07T03:05:01.174Z,962.54
2018-04-07T03:06:01.167Z,962.53
2018-04-07T03:07:01.165Z,962.56
2018-04-07T03:08:01.156Z,962.54
2018-04-07T03:09:01.152Z,962.56
2018-04-07T03:10:01.142Z,962.48
2018-04-07T03:11:01.136Z,962.51
2018-04-07T03:12:01.128Z,962.61
2018-04-07T03:13:01.125Z,962.52
2018-04-07T03:14:01.116Z,962.51
2018-04-07T03:15:01.111Z,962.47
2018-04-07T03:16:01.107Z,962.47
2018-04-07T03:17:01.099Z,962.58
2018-04-07T03:18:01.091Z,962.37
2018-04-07T03:19:01.087Z,962.50
2018-04-07T03:20:01.083Z,962.40
2018-04-07T03:21:01.075Z,962.35
2018-04-07T03:22:01.067Z,962.40
2018-04-07T03:23:01.061Z,962.49
2018-04-07T03:24:01.055Z,962.41
2018-04-07T03:25:01.048Z,962.44
2018-04-07T03:26:01.042Z,962.33
2018-04-07T03:27:01.036Z,962.42
2018-04-07T03:28:01.029Z,962.47
2018-04-07T03:29:01.022Z,962.38
2018-04-07T03:30:01.019Z,962.39
2018-04-07T03:31:01.013Z,962.41
2018-04-07T03:32:01.007Z,962.46
2018-04-07T03:33:01.002Z,962.43
2018-04-07T03:34:00.994Z,962.37
2018-04-07T03:35:00.986Z,962.49
2018-04-07T03:36:00.982Z,962.40
2018-04-07T03:37:00.973Z,962.35
2018-04-07T03:38:00.970Z,962.43
2018-04-07T03:39:00.961Z,962.38
2018-04-07T03:40:00.956Z,962.33
2018-04-07T03:41:00.949Z,962.40
2018-04-07T03:42:00.942Z,962.34
2018-04-07T03:43:00.938Z,962.34
2018-04-07T03:44:00.930Z,962.31
2018-04-07T03:45:00.925Z,962.34
2018-04-07T03:46:00.919Z,962.29
2018-04-07T03:47:00.911Z,962.33
2018-04-07T03:48:00.905Z,962.27
2018-04-07T03:49:00.900Z,962.29
2018-04-07T03:50:00.891Z,962.31
2018-04-07T03:51:00.890Z,962.29
2018-04-07T03:52:00.878Z,962.19
2018-04-07T03:53:00.875Z,962.31
2018-04-07T03:54:00.868Z,962.33
2018-04-07T03:55:00.863Z,962.23
2018-04-07T03:56:00.854Z,962.25
2018-04-07T03:57:00.849Z,962.25
2018-04-07T03:58:00.843Z,962.26
2018-04-07T03:59:00.838Z,962.25
2018-04-07T04:00:00.831Z,962.26
2018-04-07T04:01:00.826Z,962.24
2018-04-07T04:02:00.816Z,962.27
2018-04-07T04:03:00.810Z,962.30
2018-04-07T04:04:00.801Z,962.33
2018-04-07T04:05:00.799Z,962.24
2018-04-07T04:06:00.788Z,962.27
2018-04-07T04:07:00.789Z,962.31
2018-04-07T04:08:00.777Z,962.27
2018-04-07T04:09:00.772Z,962.33
2018-04-07T04:10:00.764Z,962.25
2018-04-07T04:11:00.760Z,962.26
2018-04-07T04:12:00.757Z,962.23
2018-04-07T04:13:00.746Z,962.24
2018-04-07T04:14:00.738Z,962.23
2018-04-07T04:15:00.730Z,962.25
2018-04-07T04:16:00.724Z,962.23
2018-04-07T04:17:00.720Z,962.20
2018-04-07T04:18:00.714Z,962.21
2018-04-07T04:19:00.712Z,962.17
2018-04-07T04:20:00.700Z,962.17
2018-04-07T04:21:00.696Z,962.17
2018-04-07T04:22:00.685Z,962.20
2018-04-07T04:23:00.687Z,962.29
2018-04-07T04:24:00.687Z,962.19
2018-04-07T04:25:00.673Z,962.15
2018-04-07T04:26:00.660Z,962.15
2018-04-07T04:27:00.652Z,962.17
2018-04-07T04:28:00.650Z,962.24
2018-04-07T04:29:00.642Z,962.12
2018-04-07T04:30:00.637Z,962.23
2018-04-07T04:31:00.642Z,962.19
2018-04-07T04:32:00.642Z,962.17
2018-04-07T04:33:00.615Z,962.11
2018-04-07T04:34:00.608Z,962.16
2018-04-07T04:35:00.600Z,962.20
2018-04-07T04:36:00.595Z,962.06
2018-04-07T04:37:00.607Z,962.14
2018-04-07T04:38:00.587Z,962.15
2018-04-07T04:39:00.572Z,962.12
2018-04-07T04:40:00.574Z,962.18
2018-04-07T04:41:00.562Z,962.11
2018-04-07T04:42:00.552Z,962.13
2018-04-07T04:43:00.554Z,962.15
2018-04-07T04:44:00.542Z,962.13
2018-04-07T04:45:00.539Z,962.10
2018-04-07T04:46:00.529Z,962.08
2018-04-07T04:47:00.523Z,962.10
2018-04-07T04:48:00.517Z,962.19
2018-04-07T04:49:00.510Z,962.06
2018-04-07T04:50:00.521Z,962.05
2018-04-07T04:51:00.496Z,962.16
2018-04-07T04:52:00.491Z,962.07
2018-04-07T04:53:00.487Z,962.12
2018-04-07T04:54:00.478Z,962.07
2018-04-07T04:55:00.486Z,962.11
2018-04-07T04:56:00.464Z,962.10
2018-04-07T04:57:00.462Z,962.07
2018-04-07T04:58:00.455Z,962.08
2018-04-07T04:59:00.449Z,962.03
2018-04-07T05:00:00.439Z,962.07
2018-04-07T05:01:00.435Z,962.12
2018-04-07T05:02:00.430Z,962.05
2018-04-07T05:03:00.422Z,962.05
2018-04-07T05:04:00.415Z,962.01
2018-04-07T05:05:00.412Z,962.03
2018-04-07T05:06:00.403Z,962.07
2018-04-07T05:07:00.398Z,961.95
2018-04-07T05:08:00.392Z,961.96
2018-04-07T05:09:00.386Z,961.89
2018-04-07T05:10:00.379Z,961.98
2018-04-07T05:11:00.373Z,961.95
2018-04-07T05:12:00.372Z,961.95
2018-04-07T05:13:00.363Z,961.98
2018-04-07T05:14:00.355Z,961.95
2018-04-07T05:15:00.390Z,961.95
2018-04-07T05:16:00.346Z,961.95
2018-04-07T05:17:00.345Z,961.87
2018-04-07T05:18:00.332Z,961.97
2018-04-07T05:19:00.325Z,961.91
2018-04-07T05:20:00.320Z,961.91
2018-04-07T05:21:00.315Z,961.91
2018-04-07T05:22:00.307Z,961.87
2018-04-07T05:23:00.303Z,961.79
2018-04-07T05:24:00.298Z,961.81
2018-04-07T05:25:00.292Z,961.83
2018-04-07T05:26:00.295Z,961.87
2018-04-07T05:27:00.280Z,961.84
2018-04-07T05:28:00.273Z,961.85
2018-04-07T05:29:00.269Z,961.88
2018-04-07T05:30:00.269Z,961.83
2018-04-07T05:31:00.260Z,961.84
2018-04-07T05:32:00.252Z,961.89
2018-04-07T05:33:00.247Z,961.81
2018-04-07T05:34:00.245Z,961.77
2018-04-07T05:35:00.239Z,961.87
2018-04-07T05:36:00.244Z,961.86
2018-04-07T05:37:00.226Z,961.84
2018-04-07T05:38:00.222Z,961.80
2018-04-07T05:39:00.220Z,961.78
2018-04-07T05:40:00.213Z,961.78
2018-04-07T05:41:00.210Z,961.87
2018-04-07T05:42:00.201Z,961.83
2018-04-07T05:43:00.198Z,961.84
2018-04-07T05:44:00.192Z,961.81
2018-04-07T05:45:00.186Z,961.79
2018-04-07T05:46:00.183Z,961.74
2018-04-07T05:47:00.178Z,961.78
2018-04-07T05:48:00.173Z,961.77
2018-04-07T05:49:00.169Z,961.72
2018-04-07T05:50:00.166Z,961.80
2018-04-07T05:51:00.166Z,961.74
2018-04-07T05:52:00.157Z,961.81
2018-04-07T05:53:00.150Z,961.76
2018-04-07T05:54:00.144Z,961.79
2018-04-07T05:55:00.144Z,961.76
2018-04-07T05:56:00.137Z,961.66
2018-04-07T05:57:00.139Z,961.71
2018-04-07T05:58:00.130Z,961.79
2018-04-07T05:59:00.126Z,961.78
2018-04-07T06:00:00.126Z,961.78
2018-04-07T06:01:00.122Z,961.72
2018-04-07T06:02:00.115Z,961.76
2018-04-07T06:03:00.110Z,961.80
2018-04-07T06:04:00.107Z,961.81
2018-04-07T06:05:00.104Z,961.87
2018-04-07T06:06:00.107Z,961.79
2018-04-07T06:07:00.097Z,961.79
2018-04-07T06:08:00.096Z,961.81
2018-04-07T06:09:00.091Z,961.71
2018-04-07T06:10:00.089Z,961.76
2018-04-07T06:11:00.089Z,961.75
2018-04-07T06:12:00.084Z,961.71
2018-04-07T06:13:00.127Z,961.72
2018-04-07T06:14:00.076Z,961.75
2018-04-07T06:15:00.075Z,961.76
2018-04-07T06:16:00.074Z,961.74
2018-04-07T06:17:00.066Z,961.75
2018-04-07T06:18:00.064Z,961.75
2018-04-07T06:19:00.057Z,961.70
2018-04-07T06:20:00.056Z,961.73
2018-04-07T06:21:00.063Z,961.82
2018-04-07T06:22:00.052Z,961.77
2018-04-07T06:23:00.047Z,961.76
2018-04-07T06:24:00.046Z,961.81
2018-04-07T06:25:00.044Z,961.75
2018-04-07T06:26:00.039Z,961.77
2018-04-07T06:27:00.048Z,961.79
2018-04-07T06:28:00.045Z,961.73
2018-04-07T06:29:00.033Z,961.74
2018-04-07T06:30:00.032Z,961.74
2018-04-07T06:31:00.030Z,961.74
2018-04-07T06:32:00.044Z,961.81
2018-04-07T06:33:00.023Z,961.80
2018-04-07T06:34:00.025Z,961.83
2018-04-07T06:35:00.024Z,961.83
2018-04-07T06:36:00.020Z,961.90
2018-04-07T06:37:00.019Z,961.96
2018-04-07T06:38:00.026Z,961.89
2018-04-07T06:39:00.017Z,961.85
2018-04-07T06:40:00.013Z,961.87
2018-04-07T06:41:00.011Z,961.95
2018-04-07T06:42:00.037Z,961.86
2018-04-07T06:43:00.014Z,961.95
2018-04-07T06:44:00.015Z,962.00
2018-04-07T06:45:00.009Z,962.05
2018-04-07T06:46:00.009Z,962.10
2018-04-07T06:47:00.010Z,962.00
2018-04-07T06:48:00.060Z,962.01
2018-04-07T06:49:00.015Z,961.99
2018-04-07T06:50:00.018Z,961.95
2018-04-07T06:51:00.013Z,961.97
2018-04-07T06:52:00.017Z,961.99
2018-04-07T06:53:00.032Z,961.99
2018-04-07T06:54:00.021Z,962.04
2018-04-07T06:55:00.072Z,962.06
2018-04-07T06:56:00.033Z,962.05
2018-04-07T06:57:00.051Z,962.07
2018-04-07T06:58:00.034Z,962.03
2018-04-07T06:59:00.036Z,962.06
2018-04-07T07:00:00.041Z,962.07
2018-04-07T07:01:00.046Z,962.04
2018-04-07T07:02:00.051Z,962.13
2018-04-07T07:03:00.053Z,962.09
2018-04-07T07:04:00.056Z,962.07
2018-04-07T07:05:00.062Z,962.10
2018-04-07T07:06:00.093Z,962.14
2018-04-07T07:07:00.075Z,962.06
2018-04-07T07:08:00.077Z,962.12
2018-04-07T07:09:00.110Z,962.10
2018-04-07T07:10:00.084Z,962.14
2018-04-07T07:11:00.093Z,962.14
2018-04-07T07:12:00.097Z,962.16
2018-04-07T07:13:00.103Z,962.19
2018-04-07T07:14:00.107Z,962.28
2018-04-07T07:15:00.113Z,962.23
2018-04-07T07:16:00.125Z,962.27
2018-04-07T07:17:00.124Z,962.26
2018-04-07T07:18:00.129Z,962.21
2018-04-07T07:19:00.136Z,962.26
2018-04-07T07:20:00.143Z,962.29
2018-04-07T07:21:00.153Z,962.31
2018-04-07T07:22:00.155Z,962.28
2018-04-07T07:23:00.160Z,962.25
2018-04-07T07:24:00.170Z,962.32
2018-04-07T07:25:00.175Z,962.30
2018-04-07T07:26:00.180Z,962.24
2018-04-07T07:27:00.193Z,962.31
2018-04-07T07:28:00.204Z,962.32
2018-04-07T07:29:00.205Z,962.29
2018-04-07T07:30:00.211Z,962.36
2018-04-07T07:31:00.230Z,962.29
2018-04-07T07:32:00.227Z,962.31
2018-04-07T07:33:00.235Z,962.30
2018-04-07T07:34:00.240Z,962.33
2018-04-07T07:35:00.249Z,962.37
2018-04-07T07:36:00.259Z,962.36
2018-04-07T07:37:00.267Z,962.39
2018-04-07T07:38:00.279Z,962.40
2018-04-07T07:39:00.279Z,962.40
2018-04-07T07:40:00.294Z,962.42
2018-04-07T07:41:00.302Z,962.42
2018-04-07T07:42:00.340Z,962.39
2018-04-07T07:43:00.317Z,962.39
2018-04-07T07:44:00.326Z,962.33
2018-04-07T07:45:00.336Z,962.40
2018-04-07T07:46:00.341Z,962.33
2018-04-07T07:47:00.355Z,962.31
2018-04-07T07:48:00.361Z,962.29
2018-04-07T07:49:00.373Z,962.31
2018-04-07T07:50:00.379Z,962.31
2018-04-07T07:51:00.387Z,962.32
2018-04-07T07:52:00.399Z,962.35
2018-04-07T07:53:00.406Z,962.34
2018-04-07T07:54:00.418Z,962.33
2018-04-07T07:55:00.423Z,962.29
2018-04-07T07:56:00.432Z,962.32
2018-04-07T07:57:00.447Z,962.32
2018-04-07T07:58:00.451Z,962.30
2018-04-07T07:59:00.462Z,962.31
2018-04-07T08:00:00.474Z,962.35
2018-04-07T08:01:00.483Z,962.35
2018-04-07T08:02:00.491Z,962.40
2018-04-07T08:03:00.512Z,962.40
2018-04-07T08:04:00.506Z,962.38
2018-04-07T08:05:00.516Z,962.39
2018-04-07T08:06:00.529Z,962.40
2018-04-07T08:07:00.536Z,962.32
2018-04-07T08:08:00.549Z,962.36
2018-04-07T08:09:00.581Z,962.31
2018-04-07T08:10:00.572Z,962.34
2018-04-07T08:11:00.577Z,962.37
2018-04-07T08:12:00.596Z,962.40
2018-04-07T08:13:00.602Z,962.35
2018-04-07T08:14:00.611Z,962.32
2018-04-07T08:15:00.622Z,962.49
2018-04-07T08:16:00.632Z,962.38
2018-04-07T08:17:00.643Z,962.39
2018-04-07T08:18:00.654Z,962.33
2018-04-07T08:19:00.664Z,962.35
2018-04-07T08:20:00.676Z,962.39
2018-04-07T08:21:00.690Z,962.34
2018-04-07T08:22:00.696Z,962.38
2018-04-07T08:23:00.703Z,962.36
2018-04-07T08:24:00.712Z,962.41
2018-04-07T08:25:00.724Z,962.46
2018-04-07T08:26:00.733Z,962.41
2018-04-07T08:27:00.743Z,962.42
2018-04-07T08:28:00.757Z,962.45
2018-04-07T08:29:00.761Z,962.50
2018-04-07T08:30:00.771Z,962.45
2018-04-07T08:31:00.786Z,962.52
2018-04-07T08:32:00.798Z,962.54
2018-04-07T08:33:00.801Z,962.46
2018-04-07T08:34:00.810Z,962.49
2018-04-07T08:35:00.821Z,962.47
2018-04-07T08:36:00.829Z,962.46
2018-04-07T08:37:00.843Z,962.47
2018-04-07T08:38:00.845Z,962.48
2018-04-07T08:39:00.857Z,962.49
2018-04-07T08:40:00.864Z,962.51
2018-04-07T08:41:00.872Z,962.49
2018-04-07T08:42:00.878Z,962.41
2018-04-07T08:43:00.889Z,962.41
2018-04-07T08:44:00.895Z,962.36
2018-04-07T08:45:00.904Z,962.42
2018-04-07T08:46:00.942Z,962.47
2018-04-07T08:47:00.914Z,962.44
2018-04-07T08:48:00.927Z,962.47
2018-04-07T08:49:00.932Z,962.43
2018-04-07T08:50:00.938Z,962.54
2018-04-07T08:51:00.982Z,962.45
2018-04-07T08:52:00.953Z,962.42
2018-04-07T08:53:00.960Z,962.38
2018-04-07T08:54:00.969Z,962.39
2018-04-07T08:55:00.973Z,962.44
2018-04-07T08:56:00.979Z,962.50
2018-04-07T08:57:00.988Z,962.45
2018-04-07T08:58:00.996Z,962.37
2018-04-07T08:59:01.003Z,962.37
2018-04-07T09:00:01.010Z,962.40
2018-04-07T09:01:01.015Z,962.48
2018-04-07T09:02:01.021Z,962.45
2018-04-07T09:03:01.029Z,962.37
2018-04-07T09:04:01.037Z,962.46
2018-04-07T09:05:01.041Z,962.43
2018-04-07T09:06:01.065Z,962.47
2018-04-07T09:07:01.054Z,962.46
2018-04-07T09:08:01.142Z,962.50
2018-04-07T09:09:01.068Z,962.48
2018-04-07T09:10:01.074Z,962.47
2018-04-07T09:11:01.085Z,962.47
2018-04-07T09:12:01.088Z,962.47
2018-04-07T09:13:01.096Z,962.51
2018-04-07T09:14:01.109Z,962.49
2018-04-07T09:15:01.110Z,962.46
2018-04-07T09:16:01.120Z,962.46
2018-04-07T09:17:01.125Z,962.51
2018-04-07T09:18:01.129Z,962.45
2018-04-07T09:19:01.136Z,962.43
2018-04-07T09:20:01.143Z,962.52
2018-04-07T09:21:01.150Z,962.49
2018-04-07T09:22:01.158Z,962.51
2018-04-07T09:23:01.163Z,962.53
2018-04-07T09:24:01.174Z,962.52
2018-04-07T09:25:01.180Z,962.57
2018-04-07T09:26:01.196Z,962.52
2018-04-07T09:27:01.201Z,962.56
2018-04-07T09:28:01.202Z,962.58
2018-04-07T09:29:01.213Z,962.56
2018-04-07T09:30:01.223Z,962.59
2018-04-07T09:31:01.232Z,962.61
2018-04-07T09:32:01.242Z,962.60
2018-04-07T09:33:01.245Z,962.63
2018-04-07T09:34:01.253Z,962.74
2018-04-07T09:35:01.264Z,962.79
2018-04-07T09:36:01.276Z,962.79
2018-04-07T09:37:01.290Z,962.66
2018-04-07T09:38:01.311Z,962.63
2018-04-07T09:39:01.304Z,962.63
2018-04-07T09:40:01.316Z,962.70
2018-04-07T09:41:01.328Z,962.65
2018-04-07T09:42:01.366Z,962.62
2018-04-07T09:43:01.350Z,962.63
2018-04-07T09:44:01.361Z,962.61
2018-04-07T09:45:01.374Z,962.57
2018-04-07T09:46:01.383Z,962.62
2018-04-07T09:47:01.396Z,962.64
2018-04-07T09:48:01.408Z,962.59
2018-04-07T09:49:01.419Z,962.62
2018-04-07T09:50:01.427Z,962.63
2018-04-07T09:51:01.440Z,962.63
2018-04-07T09:52:01.451Z,962.67
2018-04-07T09:53:01.463Z,962.59
2018-04-07T09:54:01.472Z,962.58
2018-04-07T09:55:01.483Z,962.61
2018-04-07T09:56:01.493Z,962.62
2018-04-07T09:57:01.502Z,962.62
2018-04-07T09:58:01.512Z,962.65
2018-04-07T09:59:01.519Z,962.65
2018-04-07T10:00:01.535Z,962.59
2018-04-07T10:01:01.540Z,962.51
2018-04-07T10:02:01.560Z,962.52
2018-04-07T10:03:01.566Z,962.52
2018-04-07T10:04:01.567Z,962.54
2018-04-07T10:05:01.572Z,962.48
2018-04-07T10:06:01.581Z,962.49
2018-04-07T10:07:01.587Z,962.51
2018-04-07T10:08:01.596Z,962.50
2018-04-07T10:09:01.603Z,962.46
2018-04-07T10:10:01.613Z,962.46
2018-04-07T10:11:01.630Z,962.46
2018-04-07T10:12:01.636Z,962.46
2018-04-07T10:13:01.633Z,962.44
2018-04-07T10:14:01.641Z,962.45
2018-04-07T10:15:01.664Z,962.44
2018-04-07T10:16:01.654Z,962.44
2018-04-07T10:17:01.664Z,962.43
2018-04-07T10:18:01.670Z,962.41
2018-04-07T10:19:01.679Z,962.41
2018-04-07T10:20:01.683Z,962.34
2018-04-07T10:21:01.690Z,962.37
2018-04-07T10:22:01.742Z,962.39
2018-04-07T10:23:01.709Z,962.34
2018-04-07T10:24:01.713Z,962.39
2018-04-07T10:25:01.720Z,962.33
2018-04-07T10:26:01.728Z,962.31
2018-04-07T10:27:01.732Z,962.27
2018-04-07T10:28:01.740Z,962.28
2018-04-07T10:29:01.752Z,962.22
2018-04-07T10:30:01.757Z,962.25
2018-04-07T10:31:01.758Z,962.27
2018-04-07T10:32:01.771Z,962.24
2018-04-07T10:33:01.794Z,962.19
2018-04-07T10:34:01.785Z,962.18
2018-04-07T10:35:01.793Z,962.20
2018-04-07T10:36:01.798Z,962.11
2018-04-07T10:37:01.801Z,962.12
2018-04-07T10:38:01.817Z,962.21
2018-04-07T10:39:01.815Z,962.22
2018-04-07T10:40:01.847Z,962.12
2018-04-07T10:41:01.828Z,962.16
2018-04-07T10:42:01.841Z,962.05
2018-04-07T10:43:01.848Z,962.11
2018-04-07T10:44:01.850Z,962.08
2018-04-07T10:45:01.854Z,962.10
2018-04-07T10:46:01.867Z,962.09
2018-04-07T10:47:01.878Z,962.10
2018-04-07T10:48:01.878Z,962.05
2018-04-07T10:49:01.892Z,962.01
2018-04-07T10:50:01.899Z,962.02
2018-04-07T10:51:01.902Z,962.00
2018-04-07T10:52:01.912Z,962.01
2018-04-07T10:53:01.923Z,962.05
2018-04-07T10:54:01.926Z,962.04
2018-04-07T10:55:01.923Z,961.99
2018-04-07T10:56:01.938Z,962.05
2018-04-07T10:57:01.943Z,962.06
2018-04-07T10:58:01.951Z,962.04
2018-04-07T10:59:01.960Z,962.03
2018-04-07T11:00:01.965Z,962.03
2018-04-07T11:01:01.975Z,961.97
2018-04-07T11:02:01.982Z,962.01
2018-04-07T11:03:01.990Z,962.03
2018-04-07T11:04:01.993Z,961.95
2018-04-07T11:05:02.018Z,961.98
2018-04-07T11:06:02.009Z,961.95
2018-04-07T11:07:02.012Z,961.98
2018-04-07T11:08:02.020Z,961.98
2018-04-07T11:09:02.026Z,961.95
2018-04-07T11:10:02.033Z,961.94
2018-04-07T11:11:02.046Z,962.00
2018-04-07T11:12:02.048Z,961.99
2018-04-07T11:13:02.054Z,962.02
2018-04-07T11:14:02.067Z,961.96
2018-04-07T11:15:02.069Z,961.99
2018-04-07T11:16:02.075Z,961.97
2018-04-07T11:17:02.084Z,962.00
2018-04-07T11:18:02.093Z,961.97
2018-04-07T11:19:02.132Z,962.01
2018-04-07T11:20:02.107Z,961.95
2018-04-07T11:21:02.113Z,961.93
2018-04-07T11:22:02.129Z,961.95
2018-04-07T11:23:02.128Z,961.94
2018-04-07T11:24:02.130Z,961.90
2018-04-07T11:25:02.141Z,961.89
2018-04-07T11:26:02.147Z,961.95
2018-04-07T11:27:02.155Z,961.88
2018-04-07T11:28:02.163Z,961.85
2018-04-07T11:29:02.175Z,961.88
2018-04-07T11:30:02.178Z,961.92
2018-04-07T11:31:02.186Z,961.89
2018-04-07T11:32:02.194Z,961.89
2018-04-07T11:33:02.199Z,961.87
2018-04-07T11:34:02.213Z,961.92
2018-04-07T11:35:02.212Z,961.85
2018-04-07T11:36:02.220Z,961.85
2018-04-07T11:37:02.232Z,961.86
2018-04-07T11:38:02.238Z,961.85
2018-04-07T11:39:02.242Z,961.84
2018-04-07T11:40:02.251Z,961.82
2018-04-07T11:41:02.257Z,961.79
2018-04-07T11:42:02.264Z,961.78
2018-04-07T11:43:02.273Z,961.69
2018-04-07T11:44:02.317Z,961.73
2018-04-07T11:45:02.304Z,961.77
2018-04-07T11:46:02.296Z,961.71
2018-04-07T11:47:02.301Z,961.73
2018-04-07T11:48:02.308Z,961.67
2018-04-07T11:49:02.316Z,961.68
2018-04-07T11:50:02.320Z,961.64
2018-04-07T11:51:02.329Z,961.74
2018-04-07T11:52:02.343Z,961.64
2018-04-07T11:53:02.346Z,961.59
2018-04-07T11:54:02.354Z,961.61
2018-04-07T11:55:02.360Z,961.64
2018-04-07T11:56:02.374Z,961.70
2018-04-07T11:57:02.372Z,961.60
2018-04-07T11:58:02.379Z,961.61
2018-04-07T11:59:02.395Z,961.63
2018-04-07T12:00:02.399Z,961.61
2018-04-07T12:01:02.404Z,961.59
2018-04-07T12:02:02.413Z,961.59
2018-04-07T12:03:02.419Z,961.58
2018-04-07T12:04:02.435Z,961.50
2018-04-07T12:05:02.438Z,961.58
2018-04-07T12:06:02.440Z,961.58
2018-04-07T12:07:02.449Z,961.58
2018-04-07T12:08:02.463Z,961.57
2018-04-07T12:09:02.463Z,961.53
2018-04-07T12:10:02.477Z,961.55
2018-04-07T12:11:02.488Z,961.52
2018-04-07T12:12:02.486Z,961.48
2018-04-07T12:13:02.494Z,961.50
2018-04-07T12:14:02.504Z,961.44
2018-04-07T12:15:02.512Z,961.47
2018-04-07T12:16:02.528Z,961.45
2018-04-07T12:17:02.525Z,961.41
2018-04-07T12:18:02.533Z,961.42
2018-04-07T12:19:02.540Z,961.35
2018-04-07T12:20:02.551Z,961.40
2018-04-07T12:21:02.555Z,961.39
2018-04-07T12:22:02.574Z,961.36
2018-04-07T12:23:02.574Z,961.36
2018-04-07T12:24:02.578Z,961.35
2018-04-07T12:25:02.611Z,961.35
2018-04-07T12:26:02.591Z,961.39
2018-04-07T12:27:02.598Z,961.34
2018-04-07T12:28:02.604Z,961.35